Etusivu
METAR-TAF:

METAR-TAF

Lentoasemat :

Helsinki, Suomi

Helsinki-Vantaan lentoasema

Leveyspiiri: 60-19N, Pituuspiiri: 024-58E, korkeus merenpinnasta: 51 m

Tämänhetkinen sää

Tämä raportti tehtiin 21 minuuttia sitten, kello 06.20 UTC
Tuuli 5 kn etelästä
Lämpötila 7°C
Kosteus 76%
Ilmanpaine 1018 hPa
Näkyvyys 10 km tai enemmän
ei pilviä alle 1500 m:ssä eikä cumulonimbus-pilviä

METAR: EFHK 200620Z 18005KT CAVOK 07/03 Q1018 NOSIG

Aika: 09:41 (06:41 UTC)

Sääennuste

Tämä raportti tehtiin 1 tunti ja 11 minuuttia sitten, kello 05.30 UTC
Ennuste voimassa 20. päivästä klo 06 UTC - 21. päivään klo 06 UTC
Tuuli 7 kn etelästä
Näkyvyys 10 km tai enemmän
ei pilviä alle 1500 m:ssä eikä cumulonimbus-pilviä
Tulossa
20. päivästä klo 09 UTC - 20. päivään klo 11 UTC
Tuuli 10 kn lännestä
Ajoittain
21. päivästä klo 00 UTC - 21. päivään klo 06 UTC
Näkyvyys: 7000 m
sadetta

TAF: EFHK 200530Z 2006/2106 19007KT CAVOK BECMG 2009/2011 27010KT TEMPO 2100/2106 7000 RA

Säähavainnot ja -ennusteet yli 4000 lentoasemalta (METAR- ja TAF-raportit).

Käytössä olevat sääasemat on merkitty karttaan keltaisilla ja punaisilla pisteillä.

Aseta hiiri pisteen päälle nähdäksesi sääaseman nimen.

Klikkaa sitten nähdäksesi säähavainnot ja -ennusteet.

Kartan vaihtaminen: klikkaa mustalla rastilla varustettuja vihreitä pisteitä, niin voit zoomata sisään; viivalla varustettua vihreää pistettä, niin voit zoomata ulos tai vihreitä nuolia, niin pääset viereisille kartoille.


METAR-TAF: